createdAt,value
2023-05-10T00:00:10.378Z,95743.53
2023-05-10T00:02:38.295Z,95733.13
2023-05-10T00:05:11.047Z,95735.00
2023-05-10T00:07:40.256Z,95736.06
2023-05-10T00:10:11.555Z,95726.44
2023-05-10T00:12:41.129Z,95732.03
2023-05-10T00:15:27.877Z,95727.78
2023-05-10T00:17:55.641Z,95723.47
2023-05-10T00:20:23.355Z,95731.72
2023-05-10T00:23:01.690Z,95729.31
2023-05-10T00:25:48.060Z,95732.25
2023-05-10T00:28:34.332Z,95740.53
2023-05-10T00:31:01.981Z,95740.53
2023-05-10T00:33:32.635Z,95740.78
2023-05-10T00:36:03.247Z,95738.38
2023-05-10T00:38:50.874Z,95751.72
2023-05-10T00:41:22.067Z,95737.84
2023-05-10T00:43:51.447Z,95743.72
2023-05-10T00:46:29.062Z,95756.50
2023-05-10T00:49:06.585Z,95754.38
2023-05-10T00:51:36.083Z,95753.53
2023-05-10T00:54:17.080Z,95759.97
2023-05-10T00:57:04.230Z,95754.88
2023-05-10T00:59:32.466Z,95758.59
2023-05-10T01:02:09.221Z,95758.06
2023-05-10T01:04:41.532Z,95756.47
2023-05-10T01:07:12.469Z,95756.72
2023-05-10T01:09:51.515Z,95759.38
2023-05-10T01:12:24.150Z,95768.47
2023-05-10T01:14:56.079Z,95766.84
2023-05-10T01:17:28.841Z,95773.25
2023-05-10T01:20:08.876Z,95770.84
2023-05-10T01:23:08.676Z,95770.84
2023-05-10T01:26:09.743Z,95766.00
2023-05-10T01:28:58.077Z,95770.03
2023-05-10T01:34:36.542Z,95776.66
2023-05-10T01:37:09.917Z,95772.38
2023-05-10T01:39:45.984Z,95775.06
2023-05-10T01:42:18.310Z,95779.84
2023-05-10T01:44:55.495Z,95784.13
2023-05-10T01:47:32.563Z,95777.19
2023-05-10T01:50:05.071Z,95777.19
2023-05-10T01:52:38.575Z,95780.66
2023-05-10T01:55:09.917Z,95779.06
2023-05-10T01:57:40.215Z,95774.78
2023-05-10T02:00:08.687Z,95783.03
2023-05-10T02:02:39.622Z,95781.69
2023-05-10T02:05:10.125Z,95785.41
2023-05-10T02:07:38.958Z,95791.81
2023-05-10T02:10:09.407Z,95787.56
2023-05-10T02:12:38.571Z,95784.88
2023-05-10T02:15:08.960Z,95774.22
2023-05-10T02:17:39.013Z,95775.28
2023-05-10T02:20:11.267Z,95782.22
2023-05-10T02:22:39.982Z,95784.06
2023-05-10T02:25:10.659Z,95785.13
2023-05-10T02:27:39.398Z,95782.47
2023-05-10T02:30:08.860Z,95778.97
2023-05-10T02:32:36.994Z,95781.13
2023-05-10T02:35:06.526Z,95777.91
2023-05-10T02:37:37.656Z,95775.25
2023-05-10T02:40:07.532Z,95785.34
2023-05-10T02:42:38.829Z,95781.88
2023-05-10T02:45:09.240Z,95778.44
2023-05-10T02:47:37.300Z,95776.81
2023-05-10T02:50:05.642Z,95778.69
2023-05-10T02:52:42.129Z,95778.94
2023-05-10T02:55:11.721Z,95785.84
2023-05-10T02:57:44.166Z,95784.81
2023-05-10T03:00:12.819Z,95777.59
2023-05-10T03:02:40.460Z,95777.84
2023-05-10T03:05:08.486Z,95778.94
2023-05-10T03:07:37.797Z,95782.91
2023-05-10T03:10:06.743Z,95776.78
2023-05-10T03:12:48.891Z,95781.28
2023-05-10T03:15:24.388Z,95776.78
2023-05-10T03:17:58.955Z,95786.38
2023-05-10T03:20:31.161Z,95790.13
2023-05-10T03:23:06.824Z,95773.59
2023-05-10T03:25:35.277Z,95786.91
2023-05-10T03:28:05.667Z,95788.75
2023-05-10T03:30:35.768Z,95787.16
2023-05-10T03:33:06.985Z,95784.75
2023-05-10T03:35:34.683Z,95789.28
2023-05-10T03:38:04.149Z,95794.59
2023-05-10T03:40:32.947Z,95792.19
2023-05-10T03:43:00.619Z,95798.59
2023-05-10T03:45:28.357Z,95795.09
2023-05-10T03:47:56.249Z,95796.97
2023-05-10T03:50:24.211Z,95794.06
2023-05-10T03:52:53.516Z,95801.25
2023-05-10T03:55:24.271Z,95799.91
2023-05-10T03:57:51.953Z,95801.78
2023-05-10T04:00:20.059Z,95797.25
2023-05-10T04:02:47.821Z,95792.16
2023-05-10T04:05:15.666Z,95784.97
2023-05-10T04:07:45.132Z,95788.44
2023-05-10T04:10:13.324Z,95792.97
2023-05-10T04:12:42.578Z,95792.41
2023-05-10T04:15:10.987Z,95802.28
2023-05-10T04:17:38.674Z,95796.94
2023-05-10T04:20:08.286Z,95798.78
2023-05-10T04:22:35.990Z,95799.88
2023-05-10T04:25:03.654Z,95800.66
2023-05-10T04:27:31.950Z,95805.47
2023-05-10T04:30:01.112Z,95805.47
2023-05-10T04:32:29.065Z,95807.31
2023-05-10T04:34:56.775Z,95807.31
2023-05-10T04:37:24.428Z,95816.38
2023-05-10T04:39:52.056Z,95813.44
2023-05-10T04:42:19.616Z,95803.59
2023-05-10T04:44:47.211Z,95817.72
2023-05-10T04:47:17.199Z,95823.03
2023-05-10T04:49:44.759Z,95820.38
2023-05-10T04:52:12.346Z,95828.09
2023-05-10T04:54:39.876Z,95820.63
2023-05-10T04:57:07.495Z,95820.63
2023-05-10T04:59:37.211Z,95831.53
2023-05-10T05:02:05.308Z,95830.50
2023-05-10T05:04:34.365Z,95836.63
2023-05-10T05:07:01.883Z,95838.22
2023-05-10T05:09:29.512Z,95841.69
2023-05-10T05:11:57.670Z,95844.09
2023-05-10T05:14:26.026Z,95836.09
2023-05-10T05:16:53.672Z,95845.97
2023-05-10T05:19:21.618Z,95847.84
2023-05-10T05:21:50.562Z,95847.28
2023-05-10T05:24:18.226Z,95855.84
2023-05-10T05:26:45.786Z,95849.69
2023-05-10T05:29:13.392Z,95855.25
2023-05-10T05:31:41.016Z,95855.84
2023-05-10T05:34:08.625Z,95862.22
2023-05-10T05:36:39.121Z,95865.13
2023-05-10T05:39:08.248Z,95861.66
2023-05-10T05:41:35.822Z,95865.94
2023-05-10T05:44:03.413Z,95857.69
2023-05-10T05:46:31.119Z,95872.38
2023-05-10T05:48:58.692Z,95872.91
2023-05-10T05:51:26.307Z,95880.66
2023-05-10T05:53:53.914Z,95879.09
2023-05-10T05:56:25.355Z,95884.16
2023-05-10T05:58:53.184Z,95880.72
2023-05-10T06:01:21.191Z,95875.66
2023-05-10T06:03:49.887Z,95881.78
2023-05-10T06:06:18.743Z,95884.19
2023-05-10T06:08:46.383Z,95889.00
2023-05-10T06:11:13.972Z,95890.28
2023-05-10T06:13:43.296Z,95892.16
2023-05-10T06:16:10.948Z,95890.88
2023-05-10T06:18:38.530Z,95898.59
2023-05-10T06:21:06.329Z,95904.19
2023-05-10T06:23:33.935Z,95902.31
2023-05-10T06:26:01.512Z,95902.31
2023-05-10T06:28:29.214Z,95902.88
2023-05-10T06:30:58.143Z,95907.16
2023-05-10T06:33:25.731Z,95907.94
2023-05-10T06:35:53.306Z,95905.28
2023-05-10T06:38:20.827Z,95916.19
2023-05-10T06:40:48.398Z,95915.69
2023-05-10T06:43:16.356Z,95916.47
2023-05-10T06:45:44.020Z,95924.19
2023-05-10T06:48:13.058Z,95919.09
2023-05-10T06:50:40.623Z,95930.84
2023-05-10T06:53:08.415Z,95917.25
2023-05-10T06:55:36.262Z,95916.19
2023-05-10T06:58:04.170Z,95920.47
2023-05-10T07:00:31.824Z,95915.69
2023-05-10T07:02:59.641Z,95909.84
2023-05-10T07:05:30.255Z,95915.47
2023-05-10T07:07:58.385Z,95921.38
2023-05-10T07:10:25.953Z,95917.38
2023-05-10T07:12:53.733Z,95918.69
2023-05-10T07:15:21.730Z,95919.22
2023-05-10T07:17:49.498Z,95920.03
2023-05-10T07:20:17.284Z,95914.75
2023-05-10T07:22:46.242Z,95916.38
2023-05-10T07:25:13.991Z,95916.34
2023-05-10T07:27:41.676Z,95929.13
2023-05-10T07:30:10.485Z,95925.34
2023-05-10T07:32:38.161Z,95924.34
2023-05-10T07:35:06.504Z,95923.31
2023-05-10T07:37:34.092Z,95928.28
2023-05-10T07:40:03.028Z,95936.84
2023-05-10T07:42:30.680Z,95939.06
2023-05-10T07:44:58.676Z,95936.75
2023-05-10T07:47:26.872Z,95947.44
2023-05-10T07:49:54.488Z,95939.44
2023-05-10T07:52:22.899Z,95952.50
2023-05-10T07:54:50.685Z,95942.09
2023-05-10T07:57:19.721Z,95941.63
2023-05-10T07:59:47.553Z,95944.31
2023-05-10T08:02:15.187Z,95949.66
2023-05-10T08:04:43.137Z,95952.34
2023-05-10T08:07:11.650Z,95941.41
2023-05-10T08:09:39.295Z,95941.38
2023-05-10T08:12:07.834Z,95945.16
2023-05-10T08:14:37.750Z,95947.31
2023-05-10T08:17:05.654Z,95946.34
2023-05-10T08:19:33.309Z,95946.91
2023-05-10T08:22:00.852Z,95940.25
2023-05-10T08:24:28.562Z,95940.00
2023-05-10T08:26:56.150Z,95945.41
2023-05-10T08:29:24.007Z,95948.63
2023-05-10T08:31:53.570Z,95944.59
2023-05-10T08:34:21.399Z,95947.53
2023-05-10T08:36:49.177Z,95953.44
2023-05-10T08:39:29.280Z,95949.91
2023-05-10T08:42:02.809Z,95960.84
2023-05-10T08:44:31.859Z,95959.53
2023-05-10T08:47:01.674Z,95958.94
2023-05-10T08:49:32.896Z,95956.84
2023-05-10T08:52:01.992Z,95959.81
2023-05-10T08:54:29.841Z,95961.69
2023-05-10T08:56:57.935Z,95967.34
2023-05-10T08:59:25.782Z,95975.34
2023-05-10T09:01:56.159Z,95966.53
2023-05-10T09:04:25.329Z,95976.63
2023-05-10T09:06:53.329Z,95976.97
2023-05-10T09:09:22.251Z,95970.41
2023-05-10T09:11:50.220Z,95971.50
2023-05-10T09:14:18.561Z,95973.38
2023-05-10T09:16:46.680Z,95977.41
2023-05-10T09:19:14.299Z,95973.94
2023-05-10T09:21:43.304Z,95969.91
2023-05-10T09:24:11.058Z,95967.25
2023-05-10T09:26:48.762Z,95977.13
2023-05-10T09:29:17.940Z,95978.22
2023-05-10T09:31:48.228Z,95979.63
2023-05-10T09:34:20.604Z,95981.50
2023-05-10T09:36:57.541Z,95974.03
2023-05-10T09:39:35.052Z,95969.22
2023-05-10T09:42:05.641Z,95972.69
2023-05-10T09:44:33.776Z,95970.56
2023-05-10T09:47:02.267Z,95966.28
2023-05-10T09:49:30.934Z,95963.09
2023-05-10T09:52:04.640Z,95965.22
2023-05-10T09:54:32.869Z,95964.16
2023-05-10T09:57:00.686Z,95969.25
2023-05-10T09:59:29.489Z,95971.66
2023-05-10T10:01:59.475Z,95973.81
2023-05-10T10:04:27.476Z,95962.28
2023-05-10T10:07:04.934Z,95965.78
2023-05-10T10:09:33.327Z,95966.59
2023-05-10T10:12:01.590Z,95966.31
2023-05-10T10:14:29.620Z,95965.25
2023-05-10T10:17:07.680Z,95959.66
2023-05-10T10:19:37.646Z,95963.91
2023-05-10T10:22:07.774Z,95963.91
2023-05-10T10:24:35.585Z,95959.66
2023-05-10T10:27:11.216Z,95960.44
2023-05-10T10:29:46.701Z,95962.59
2023-05-10T10:32:26.561Z,95963.38
2023-05-10T10:34:56.454Z,95966.84
2023-05-10T10:37:42.952Z,95963.38
2023-05-10T10:40:25.359Z,95965.25
2023-05-10T10:42:52.978Z,95972.22
2023-05-10T10:45:21.958Z,95961.25
2023-05-10T10:47:50.696Z,95974.09
2023-05-10T10:50:18.265Z,95959.94
2023-05-10T10:52:50.318Z,95974.38
2023-05-10T10:55:20.158Z,95969.03
2023-05-10T10:57:50.604Z,95969.84
2023-05-10T11:00:27.337Z,95957.78
2023-05-10T11:02:57.732Z,95970.63
2023-05-10T11:05:37.048Z,95966.88
2023-05-10T11:08:15.257Z,95965.78
2023-05-10T11:10:53.725Z,95966.88
2023-05-10T11:13:30.352Z,95962.84
2023-05-10T11:15:59.791Z,95967.41
2023-05-10T11:18:29.459Z,95972.75
2023-05-10T11:21:03.660Z,95975.69
2023-05-10T11:23:34.380Z,95970.91
2023-05-10T11:26:02.656Z,95965.56
2023-05-10T11:28:30.263Z,95950.59
2023-05-10T11:30:58.921Z,95958.34
2023-05-10T11:33:26.463Z,95958.06
2023-05-10T11:35:54.067Z,95961.53
2023-05-10T11:38:21.663Z,95961.28
2023-05-10T11:40:54.178Z,95957.00
2023-05-10T11:43:26.463Z,95962.59
2023-05-10T11:45:54.128Z,95960.75
2023-05-10T11:48:24.701Z,95964.78
2023-05-10T11:50:52.399Z,95958.09
2023-05-10T11:53:22.471Z,95957.56
2023-05-10T11:55:52.206Z,95959.41
2023-05-10T11:58:22.177Z,95955.41
2023-05-10T12:00:50.064Z,95963.97
2023-05-10T12:03:18.225Z,95961.03
2023-05-10T12:05:45.973Z,95952.47
2023-05-10T12:08:14.541Z,95947.38
2023-05-10T12:10:42.334Z,95955.69
2023-05-10T12:13:16.087Z,95953.25
2023-05-10T12:15:44.725Z,95958.59
2023-05-10T12:18:13.195Z,95946.56
2023-05-10T12:20:41.965Z,95963.69
2023-05-10T12:23:11.487Z,95959.69
2023-05-10T12:25:40.106Z,95962.63
2023-05-10T12:28:09.786Z,95965.84
2023-05-10T12:30:39.639Z,95963.97
2023-05-10T12:33:10.841Z,95962.38
2023-05-10T12:35:46.180Z,95965.59
2023-05-10T12:38:31.809Z,95956.47
2023-05-10T12:41:00.593Z,95958.88
2023-05-10T12:43:28.348Z,95955.66
2023-05-10T12:45:57.404Z,95959.13
2023-05-10T12:48:25.092Z,95962.06
2023-05-10T12:50:52.697Z,95955.66
2023-05-10T12:53:20.691Z,95955.66
2023-05-10T12:55:48.362Z,95952.16
2023-05-10T12:58:31.510Z,95956.19
2023-05-10T13:01:01.077Z,95951.63
2023-05-10T13:03:28.703Z,95955.09
2023-05-10T13:05:56.334Z,95954.06
2023-05-10T13:08:23.909Z,95949.25
2023-05-10T13:10:51.569Z,95950.06
2023-05-10T13:13:19.189Z,95952.72
2023-05-10T13:15:46.834Z,95955.41
2023-05-10T13:18:15.771Z,95958.34
2023-05-10T13:20:45.105Z,95950.31
2023-05-10T13:23:12.788Z,95946.59
2023-05-10T13:25:40.438Z,95957.28
2023-05-10T13:28:08.034Z,95957.03
2023-05-10T13:30:35.907Z,95954.88
2023-05-10T13:33:03.583Z,95958.63
2023-05-10T13:35:32.606Z,95953.00
2023-05-10T13:38:00.404Z,95949.78
2023-05-10T13:40:28.155Z,95956.75
2023-05-10T13:42:55.724Z,95954.59
2023-05-10T13:45:23.524Z,95955.41
2023-05-10T13:47:51.239Z,95945.78
2023-05-10T13:50:19.065Z,95942.31
2023-05-10T13:52:48.052Z,95951.66
2023-05-10T13:55:15.840Z,95950.59
2023-05-10T13:57:44.110Z,95944.97
2023-05-10T14:00:12.810Z,95943.59
2023-05-10T14:02:40.535Z,95950.31
2023-05-10T14:05:09.557Z,95942.56
2023-05-10T14:07:37.162Z,95945.78
2023-05-10T14:10:07.337Z,95935.88
2023-05-10T14:12:34.992Z,95949.25
2023-05-10T14:15:03.208Z,95931.59
2023-05-10T14:17:30.796Z,95936.16
2023-05-10T14:19:58.534Z,95931.59
2023-05-10T14:22:26.074Z,95924.34
2023-05-10T14:24:53.658Z,95929.19
2023-05-10T14:27:22.552Z,95925.44
2023-05-10T14:29:50.143Z,95917.44
2023-05-10T14:32:17.912Z,95923.03
2023-05-10T14:34:45.611Z,95915.53
2023-05-10T14:37:13.576Z,95916.06
2023-05-10T14:39:41.228Z,95913.38
2023-05-10T14:42:09.023Z,95916.88
2023-05-10T14:44:38.240Z,95911.81
2023-05-10T14:47:06.086Z,95918.50
2023-05-10T14:49:33.693Z,95916.84
2023-05-10T14:52:01.261Z,95917.38
2023-05-10T14:54:29.107Z,95918.75
2023-05-10T14:56:56.670Z,95913.38
2023-05-10T14:59:24.271Z,95908.81
2023-05-10T15:01:53.582Z,95917.94
2023-05-10T15:04:22.324Z,95928.91
2023-05-10T15:06:50.234Z,95927.81
2023-05-10T15:09:18.136Z,95923.00
2023-05-10T15:11:45.760Z,95925.97
2023-05-10T15:14:13.384Z,95919.28
2023-05-10T15:16:40.961Z,95926.25
2023-05-10T15:19:10.160Z,95914.72
2023-05-10T15:21:39.731Z,95919.28
2023-05-10T15:24:07.887Z,95920.59
2023-05-10T15:26:36.074Z,95924.38
2023-05-10T15:29:03.666Z,95918.47
2023-05-10T15:31:31.526Z,95930.25
2023-05-10T15:34:00.336Z,95921.41
2023-05-10T15:36:29.307Z,95917.94
2023-05-10T15:38:57.051Z,95913.91
2023-05-10T15:41:25.681Z,95925.72
2023-05-10T15:43:53.316Z,95917.41
2023-05-10T15:46:21.082Z,95923.81
2023-05-10T15:48:48.873Z,95921.94
2023-05-10T15:51:16.553Z,95916.34
2023-05-10T15:54:06.956Z,95917.94
2023-05-10T15:56:35.642Z,95928.38
2023-05-10T15:59:03.769Z,95920.63
2023-05-10T16:01:32.859Z,95921.41
2023-05-10T16:04:01.824Z,95911.78
2023-05-10T16:06:29.575Z,95913.94
2023-05-10T16:08:57.491Z,95915.25
2023-05-10T16:11:26.531Z,95918.47
2023-05-10T16:13:54.397Z,95920.06
2023-05-10T16:16:22.186Z,95921.66
2023-05-10T16:18:49.891Z,95925.66
2023-05-10T16:21:17.523Z,95912.81
2023-05-10T16:23:46.574Z,95927.53
2023-05-10T16:26:14.220Z,95929.94
2023-05-10T16:28:43.162Z,95936.09
2023-05-10T16:31:10.733Z,95933.69
2023-05-10T16:33:38.420Z,95929.66
2023-05-10T16:36:06.572Z,95934.47
2023-05-10T16:38:34.218Z,95944.91
2023-05-10T16:41:03.628Z,95940.59
2023-05-10T16:43:32.310Z,95949.38
2023-05-10T16:46:01.265Z,95948.56
2023-05-10T16:48:28.952Z,95947.50
2023-05-10T16:50:56.603Z,95947.22
2023-05-10T16:53:24.190Z,95948.56
2023-05-10T16:55:51.829Z,95954.19
2023-05-10T16:58:19.431Z,95954.19
2023-05-10T17:00:47.175Z,95964.06
2023-05-10T17:03:16.343Z,95961.09
2023-05-10T17:05:44.555Z,95957.63
2023-05-10T17:08:12.247Z,95966.72
2023-05-10T17:10:40.705Z,95961.09
2023-05-10T17:13:10.370Z,95964.28
2023-05-10T17:15:38.674Z,95961.59
2023-05-10T17:18:07.417Z,95970.41
2023-05-10T17:20:36.705Z,95980.53
2023-05-10T17:23:04.316Z,95975.97
2023-05-10T17:25:31.864Z,95991.22
2023-05-10T17:27:59.492Z,95987.75
2023-05-10T17:30:28.765Z,95987.50
2023-05-10T17:32:56.561Z,95979.47
2023-05-10T17:35:24.220Z,95979.75
2023-05-10T17:37:53.276Z,95983.50
2023-05-10T17:40:21.009Z,95979.22
2023-05-10T17:42:48.733Z,95986.44
2023-05-10T17:45:16.620Z,95982.69
2023-05-10T17:47:44.510Z,95984.56
2023-05-10T17:50:12.250Z,95984.03
2023-05-10T17:52:53.302Z,95984.53
2023-05-10T17:55:20.917Z,95979.47
2023-05-10T17:57:50.588Z,95981.31
2023-05-10T18:00:19.817Z,95986.66
2023-05-10T18:02:47.473Z,95986.91
2023-05-10T18:05:15.306Z,95983.19
2023-05-10T18:07:43.759Z,95983.19
2023-05-10T18:10:13.029Z,95986.66
2023-05-10T18:12:40.703Z,95984.22
2023-05-10T18:15:09.629Z,95985.56
2023-05-10T18:17:37.299Z,95988.50
2023-05-10T18:20:06.006Z,95987.97
2023-05-10T18:22:34.324Z,95988.22
2023-05-10T18:25:02.061Z,95995.41
2023-05-10T18:27:31.028Z,95994.09
2023-05-10T18:29:58.680Z,95994.34
2023-05-10T18:32:26.406Z,96000.47
2023-05-10T18:34:55.627Z,96002.63
2023-05-10T18:37:23.600Z,95996.72
2023-05-10T18:39:51.706Z,96005.81
2023-05-10T18:42:20.328Z,96003.38
2023-05-10T18:44:49.256Z,96008.41
2023-05-10T18:47:16.902Z,96012.44
2023-05-10T18:49:46.032Z,96015.59
2023-05-10T18:52:15.589Z,96006.50
2023-05-10T18:54:43.407Z,96009.69
2023-05-10T18:57:11.049Z,96017.66
2023-05-10T18:59:38.743Z,96022.47
2023-05-10T19:02:08.200Z,96021.09
2023-05-10T19:04:35.855Z,96016.81
2023-05-10T19:07:03.493Z,96025.91
2023-05-10T19:09:31.070Z,96020.81
2023-05-10T19:11:58.609Z,96029.31
2023-05-10T19:14:26.286Z,96024.00
2023-05-10T19:16:54.967Z,96023.44
2023-05-10T19:19:24.070Z,96035.16
2023-05-10T19:21:51.684Z,96033.56
2023-05-10T19:24:21.728Z,96032.75
2023-05-10T19:26:49.340Z,96037.31
2023-05-10T19:29:17.039Z,96045.78
2023-05-10T19:31:45.124Z,96048.72
2023-05-10T19:34:12.998Z,96040.69
2023-05-10T19:36:42.026Z,96052.69
2023-05-10T19:39:09.810Z,96051.31
2023-05-10T19:41:37.454Z,96058.53
2023-05-10T19:44:05.125Z,96058.53
2023-05-10T19:46:32.719Z,96053.69
2023-05-10T19:49:00.296Z,96060.91
2023-05-10T19:51:28.358Z,96059.53
2023-05-10T19:53:57.285Z,96064.06
2023-05-10T19:56:26.705Z,96063.28
2023-05-10T19:58:54.329Z,96060.84
2023-05-10T20:01:22.018Z,96054.94
2023-05-10T20:03:49.732Z,96067.00
2023-05-10T20:06:17.529Z,96065.88
2023-05-10T20:08:45.092Z,96072.28
2023-05-10T20:11:14.022Z,96066.13
2023-05-10T20:13:41.809Z,96066.13
2023-05-10T20:16:09.486Z,96069.88
2023-05-10T20:18:38.016Z,96071.72
2023-05-10T20:21:06.331Z,96071.16
2023-05-10T20:23:33.941Z,96077.56
2023-05-10T20:26:01.612Z,96070.63
2023-05-10T20:28:30.838Z,96080.47
2023-05-10T20:30:58.771Z,96076.22
2023-05-10T20:33:26.374Z,96077.50
2023-05-10T20:35:53.940Z,96082.03
2023-05-10T20:38:21.996Z,96078.56
2023-05-10T20:40:49.654Z,96080.69
2023-05-10T20:43:17.440Z,96076.38
2023-05-10T20:45:46.400Z,96072.13
2023-05-10T20:48:14.305Z,96071.59
2023-05-10T20:50:41.847Z,96073.19
2023-05-10T20:53:09.573Z,96071.59
2023-05-10T20:55:37.186Z,96070.75
2023-05-10T20:58:05.218Z,96063.84
2023-05-10T21:00:33.459Z,96071.00
2023-05-10T21:03:02.451Z,96073.13
2023-05-10T21:05:30.228Z,96071.75
2023-05-10T21:07:57.908Z,96070.19
2023-05-10T21:10:28.187Z,96069.34
2023-05-10T21:12:55.850Z,96065.09
2023-05-10T21:15:24.377Z,96061.84
2023-05-10T21:17:53.745Z,96067.44
2023-05-10T21:20:23.340Z,96064.75
2023-05-10T21:22:51.157Z,96066.09
2023-05-10T21:25:18.875Z,96073.50
2023-05-10T21:27:47.128Z,96069.50
2023-05-10T21:30:15.180Z,96064.97
2023-05-10T21:32:42.916Z,96068.44
2023-05-10T21:35:11.118Z,96060.44
2023-05-10T21:37:40.101Z,96062.31
2023-05-10T21:40:08.720Z,96057.22
2023-05-10T21:42:36.304Z,96063.59
2023-05-10T21:45:03.969Z,96063.06
2023-05-10T21:47:31.638Z,96064.94
2023-05-10T21:49:59.941Z,96069.47
2023-05-10T21:52:27.647Z,96063.56
2023-05-10T21:54:56.604Z,96060.34
2023-05-10T21:57:24.302Z,96061.38
2023-05-10T21:59:52.251Z,96057.13
2023-05-10T22:02:19.944Z,96063.50
2023-05-10T22:04:47.539Z,96060.03
2023-05-10T22:07:16.728Z,96060.28
2023-05-10T22:09:44.357Z,96057.88
2023-05-10T22:12:13.395Z,96058.13
2023-05-10T22:14:41.097Z,96059.97
2023-05-10T22:17:08.830Z,96056.75
2023-05-10T22:19:36.546Z,96055.97
2023-05-10T22:22:04.251Z,96055.38
2023-05-10T22:24:31.882Z,96061.78
2023-05-10T22:26:59.566Z,96054.03
2023-05-10T22:29:28.779Z,96062.28
2023-05-10T22:31:56.453Z,96053.47
2023-05-10T22:34:24.199Z,96053.75
2023-05-10T22:36:51.871Z,96051.31
2023-05-10T22:39:19.518Z,96052.38
2023-05-10T22:41:47.111Z,96052.88
2023-05-10T22:44:14.874Z,96050.41
2023-05-10T22:46:43.894Z,96045.59
2023-05-10T22:49:12.221Z,96042.13
2023-05-10T22:51:39.807Z,96049.03
2023-05-10T22:54:07.952Z,96050.38
2023-05-10T22:56:35.956Z,96045.53
2023-05-10T22:59:03.593Z,96051.91
2023-05-10T23:01:31.417Z,96048.44
2023-05-10T23:04:00.505Z,96050.28
2023-05-10T23:06:28.327Z,96051.34
2023-05-10T23:08:56.042Z,96047.06
2023-05-10T23:11:23.675Z,96047.56
2023-05-10T23:13:51.879Z,96053.38
2023-05-10T23:16:19.593Z,96051.78
2023-05-10T23:18:47.272Z,96046.72
2023-05-10T23:21:17.309Z,96048.53
2023-05-10T23:23:44.993Z,96060.53
2023-05-10T23:26:12.670Z,96050.09
2023-05-10T23:28:40.957Z,96050.09
2023-05-10T23:31:08.598Z,96049.28
2023-05-10T23:33:36.162Z,96051.16
2023-05-10T23:36:03.749Z,96052.19
2023-05-10T23:38:32.806Z,96052.44
2023-05-10T23:41:00.505Z,96048.97
2023-05-10T23:43:28.295Z,96050.84
2023-05-10T23:45:57.006Z,96044.94
2023-05-10T23:48:25.029Z,96047.06
2023-05-10T23:50:52.680Z,96040.09
2023-05-10T23:53:20.344Z,96044.88
2023-05-10T23:55:49.353Z,96037.94
2023-05-10T23:58:16.934Z,96043.53
